createdAt,value
2022-08-21T00:01:38.171Z,59.40
2022-08-21T00:04:05.910Z,59.10
2022-08-21T00:06:33.932Z,58.70
2022-08-21T00:09:06.107Z,58.40
2022-08-21T00:11:33.613Z,57.90
2022-08-21T00:14:00.314Z,57.50
2022-08-21T00:16:27.187Z,57.30
2022-08-21T00:18:53.897Z,56.80
2022-08-21T00:21:20.576Z,56.70
2022-08-21T00:23:47.311Z,57.40
2022-08-21T00:26:14.008Z,57.40
2022-08-21T00:28:40.845Z,57.70
2022-08-21T00:31:07.553Z,57.80
2022-08-21T00:33:34.810Z,58.00
2022-08-21T00:36:01.559Z,58.00
2022-08-21T00:38:28.257Z,58.20
2022-08-21T00:40:58.798Z,58.30
2022-08-21T00:43:28.850Z,58.30
2022-08-21T00:45:56.324Z,58.50
2022-08-21T00:48:23.396Z,58.50
2022-08-21T00:50:52.035Z,58.60
2022-08-21T00:53:18.729Z,58.60
2022-08-21T00:55:45.899Z,58.50
2022-08-21T00:58:12.894Z,58.50
2022-08-21T01:00:41.524Z,58.50
2022-08-21T01:03:10.150Z,58.50
2022-08-21T01:05:37.664Z,58.60
2022-08-21T01:08:04.592Z,58.60
2022-08-21T01:10:31.288Z,58.50
2022-08-21T01:12:58.295Z,58.50
2022-08-21T01:15:26.020Z,58.50
2022-08-21T01:17:52.692Z,58.50
2022-08-21T01:20:19.412Z,58.50
2022-08-21T01:22:46.180Z,58.70
2022-08-21T01:25:13.902Z,58.50
2022-08-21T01:27:40.650Z,58.50
2022-08-21T01:30:12.247Z,58.30
2022-08-21T01:32:38.970Z,57.80
2022-08-21T01:35:05.922Z,57.50
2022-08-21T01:37:32.760Z,57.20
2022-08-21T01:39:59.777Z,56.80
2022-08-21T01:42:26.482Z,56.50
2022-08-21T01:44:54.408Z,56.10
2022-08-21T01:47:23.045Z,56.10
2022-08-21T01:49:49.827Z,56.60
2022-08-21T01:52:16.544Z,56.80
2022-08-21T01:54:43.332Z,57.10
2022-08-21T01:57:11.040Z,57.20
2022-08-21T01:59:38.216Z,57.30
2022-08-21T02:02:05.044Z,57.50
2022-08-21T02:04:31.941Z,57.70
2022-08-21T02:06:58.685Z,57.70
2022-08-21T02:09:25.472Z,57.80
2022-08-21T02:11:52.542Z,57.80
2022-08-21T02:14:31.993Z,57.90
2022-08-21T02:17:05.258Z,58.00
2022-08-21T02:19:40.217Z,58.00
2022-08-21T02:22:10.702Z,58.00
2022-08-21T02:24:38.532Z,58.10
2022-08-21T02:27:26.202Z,58.10
2022-08-21T02:29:54.364Z,58.20
2022-08-21T02:32:22.392Z,58.10
2022-08-21T02:34:49.971Z,58.20
2022-08-21T02:37:16.806Z,58.10
2022-08-21T02:39:43.565Z,58.20
2022-08-21T02:42:10.320Z,58.20
2022-08-21T02:44:37.004Z,58.20
2022-08-21T02:47:03.701Z,58.20
2022-08-21T02:49:30.420Z,58.10
2022-08-21T02:51:57.207Z,57.90
2022-08-21T02:54:23.959Z,57.60
2022-08-21T02:56:50.659Z,57.30
2022-08-21T02:59:17.402Z,57.10
2022-08-21T03:01:44.189Z,56.50
2022-08-21T03:04:11.504Z,56.20
2022-08-21T03:06:38.221Z,55.90
2022-08-21T03:09:05.003Z,55.50
2022-08-21T03:11:31.705Z,55.40
2022-08-21T03:13:58.546Z,56.00
2022-08-21T03:16:25.283Z,56.30
2022-08-21T03:18:51.983Z,56.50
2022-08-21T03:21:20.042Z,56.80
2022-08-21T03:23:46.820Z,57.00
2022-08-21T03:26:13.583Z,57.10
2022-08-21T03:28:40.781Z,57.10
2022-08-21T03:31:10.582Z,57.10
2022-08-21T03:33:37.270Z,57.20
2022-08-21T03:36:05.495Z,57.30
2022-08-21T03:38:32.641Z,57.40
2022-08-21T03:40:59.488Z,57.40
2022-08-21T03:43:26.268Z,57.40
2022-08-21T03:45:53.951Z,57.60
2022-08-21T03:48:20.686Z,57.40
2022-08-21T03:50:48.304Z,57.50
2022-08-21T03:53:17.566Z,57.50
2022-08-21T03:55:47.980Z,57.50
2022-08-21T03:58:16.362Z,57.60
2022-08-21T04:00:44.866Z,57.50
2022-08-21T04:03:11.564Z,57.50
2022-08-21T04:05:38.559Z,57.40
2022-08-21T04:08:05.656Z,57.50
2022-08-21T04:10:32.974Z,57.50
2022-08-21T04:12:59.834Z,57.50
2022-08-21T04:15:26.891Z,57.50
2022-08-21T04:17:53.711Z,57.40
2022-08-21T04:20:20.429Z,57.10
2022-08-21T04:22:47.196Z,56.90
2022-08-21T04:25:14.379Z,56.50
2022-08-21T04:27:44.025Z,56.20
2022-08-21T04:30:11.161Z,55.80
2022-08-21T04:32:38.133Z,55.50
2022-08-21T04:35:06.134Z,55.00
2022-08-21T04:37:32.842Z,54.70
2022-08-21T04:39:59.644Z,54.90
2022-08-21T04:42:27.038Z,55.40
2022-08-21T04:44:53.825Z,55.60
2022-08-21T04:47:20.535Z,55.90
2022-08-21T04:49:47.297Z,56.10
2022-08-21T04:52:14.673Z,56.20
2022-08-21T04:54:41.425Z,56.30
2022-08-21T04:57:08.660Z,56.40
2022-08-21T04:59:39.618Z,56.50
2022-08-21T05:02:07.006Z,56.70
2022-08-21T05:04:34.212Z,56.70
2022-08-21T05:07:01.979Z,56.90
2022-08-21T05:09:34.324Z,56.90
2022-08-21T05:12:04.739Z,57.00
2022-08-21T05:14:31.728Z,56.90
2022-08-21T05:16:58.521Z,56.90
2022-08-21T05:19:25.317Z,56.90
2022-08-21T05:21:52.273Z,56.90
2022-08-21T05:24:19.002Z,56.90
2022-08-21T05:26:46.664Z,56.90
2022-08-21T05:29:15.148Z,56.90
2022-08-21T05:31:43.282Z,56.90
2022-08-21T05:34:10.002Z,56.90
2022-08-21T05:36:37.117Z,56.90
2022-08-21T05:39:03.871Z,56.80
2022-08-21T05:41:30.632Z,56.80
2022-08-21T05:44:00.917Z,56.80
2022-08-21T05:46:27.627Z,56.70
2022-08-21T05:48:54.331Z,56.30
2022-08-21T05:51:21.035Z,55.90
2022-08-21T05:53:48.434Z,55.60
2022-08-21T05:56:15.198Z,55.20
2022-08-21T05:58:43.084Z,54.80
2022-08-21T06:01:10.127Z,54.30
2022-08-21T06:03:38.815Z,54.20
2022-08-21T06:06:05.647Z,53.20
2022-08-21T06:08:32.461Z,53.80
2022-08-21T06:10:59.725Z,55.50
2022-08-21T06:13:26.544Z,56.30
2022-08-21T06:16:07.329Z,56.90
2022-08-21T06:18:34.296Z,57.20
2022-08-21T06:21:01.348Z,57.80
2022-08-21T06:23:33.284Z,58.30
2022-08-21T06:26:00.812Z,58.90
2022-08-21T06:28:27.575Z,59.70
2022-08-21T06:30:54.265Z,60.60
2022-08-21T06:33:20.976Z,61.10
2022-08-21T06:35:47.689Z,61.90
2022-08-21T06:38:14.545Z,62.50
2022-08-21T06:40:43.976Z,62.30
2022-08-21T06:43:15.460Z,63.10
2022-08-21T06:45:42.322Z,63.70
2022-08-21T06:48:09.109Z,64.20
2022-08-21T06:50:37.876Z,64.20
2022-08-21T06:53:05.766Z,64.60
2022-08-21T06:55:33.166Z,65.70
2022-08-21T06:58:00.046Z,66.40
2022-08-21T07:00:26.785Z,66.80
2022-08-21T07:02:53.552Z,67.00
2022-08-21T07:05:20.269Z,67.00
2022-08-21T07:07:47.017Z,66.90
2022-08-21T07:10:22.165Z,67.40
2022-08-21T07:12:51.064Z,68.10
2022-08-21T07:15:20.218Z,68.10
2022-08-21T07:17:46.916Z,68.40
2022-08-21T07:20:14.108Z,68.30
2022-08-21T07:22:41.010Z,68.80
2022-08-21T07:25:08.092Z,69.00
2022-08-21T07:27:34.781Z,69.50
2022-08-21T07:30:01.493Z,69.00
2022-08-21T07:32:28.268Z,68.80
2022-08-21T07:34:55.008Z,70.00
2022-08-21T07:37:21.711Z,68.90
2022-08-21T07:39:50.147Z,68.60
2022-08-21T07:42:17.016Z,68.70
2022-08-21T07:44:44.057Z,69.00
2022-08-21T07:47:10.800Z,68.70
2022-08-21T07:49:37.494Z,67.90
2022-08-21T07:52:04.334Z,67.90
2022-08-21T07:54:33.864Z,68.10
2022-08-21T07:57:01.679Z,68.50
2022-08-21T07:59:28.695Z,68.20
2022-08-21T08:01:55.405Z,68.70
2022-08-21T08:04:26.241Z,68.70
2022-08-21T08:06:53.535Z,68.90
2022-08-21T08:09:20.804Z,69.30
2022-08-21T08:11:47.621Z,69.20
2022-08-21T08:14:14.405Z,69.30
2022-08-21T08:16:41.350Z,68.80
2022-08-21T08:19:08.232Z,68.50
2022-08-21T08:21:35.300Z,69.50
2022-08-21T08:24:18.322Z,69.30
2022-08-21T08:26:46.480Z,69.30
2022-08-21T08:29:20.779Z,68.70
2022-08-21T08:31:47.526Z,69.40
2022-08-21T08:34:23.475Z,70.00
2022-08-21T08:36:52.315Z,69.30
2022-08-21T08:39:26.881Z,69.40
2022-08-21T08:42:01.064Z,69.60
2022-08-21T08:44:30.358Z,70.10
2022-08-21T08:46:57.743Z,69.80
2022-08-21T08:49:28.219Z,69.80
2022-08-21T08:51:56.374Z,69.40
2022-08-21T08:54:43.727Z,69.60
2022-08-21T08:57:18.425Z,70.00
2022-08-21T09:00:07.190Z,69.90
2022-08-21T09:02:35.085Z,70.70
2022-08-21T09:05:01.951Z,70.70
2022-08-21T09:07:34.728Z,70.70
2022-08-21T09:10:08.582Z,69.70
2022-08-21T09:12:39.464Z,69.70
2022-08-21T09:15:24.989Z,69.80
2022-08-21T09:18:04.635Z,69.10
2022-08-21T09:20:37.929Z,69.20
2022-08-21T09:23:23.388Z,68.00
2022-08-21T09:25:56.821Z,67.20
2022-08-21T09:28:23.535Z,67.20
2022-08-21T09:30:50.293Z,66.60
2022-08-21T09:33:18.492Z,66.00
2022-08-21T09:35:52.488Z,65.70
2022-08-21T09:38:30.250Z,65.00
2022-08-21T09:40:58.433Z,64.70
2022-08-21T09:43:26.400Z,64.10
2022-08-21T09:46:03.917Z,63.90
2022-08-21T09:48:32.921Z,63.70
2022-08-21T09:51:08.825Z,63.50
2022-08-21T09:53:36.728Z,63.20
2022-08-21T09:56:24.157Z,63.10
2022-08-21T09:58:51.968Z,63.10
2022-08-21T10:01:20.051Z,63.10
2022-08-21T10:03:49.592Z,62.60
2022-08-21T10:06:26.519Z,62.20
2022-08-21T10:09:03.750Z,62.10
2022-08-21T10:11:30.502Z,61.90
2022-08-21T10:13:59.761Z,61.70
2022-08-21T10:16:29.547Z,61.40
2022-08-21T10:19:06.127Z,61.50
2022-08-21T10:21:32.876Z,61.30
2022-08-21T10:24:11.343Z,61.20
2022-08-21T10:27:01.726Z,61.20
2022-08-21T10:29:45.136Z,60.90
2022-08-21T10:32:22.517Z,60.40
2022-08-21T10:34:57.617Z,60.00
2022-08-21T10:37:28.352Z,59.50
2022-08-21T10:40:13.945Z,59.10
2022-08-21T10:42:59.952Z,58.60
2022-08-21T10:45:26.803Z,58.50
2022-08-21T10:47:57.819Z,58.50
2022-08-21T10:50:31.149Z,58.60
2022-08-21T10:53:07.290Z,58.80
2022-08-21T10:55:46.474Z,58.90
2022-08-21T10:58:44.758Z,59.10
2022-08-21T11:01:23.788Z,59.10
2022-08-21T11:03:55.692Z,59.00
2022-08-21T11:06:26.304Z,59.20
2022-08-21T11:08:55.443Z,59.10
2022-08-21T11:11:29.436Z,59.20
2022-08-21T11:14:05.907Z,59.20
2022-08-21T11:16:41.637Z,59.20
2022-08-21T11:19:10.061Z,59.30
2022-08-21T11:21:39.854Z,59.10
2022-08-21T11:24:15.466Z,59.30
2022-08-21T11:26:53.983Z,59.10
2022-08-21T11:29:34.752Z,59.20
2022-08-21T11:32:04.466Z,59.10
2022-08-21T11:34:50.024Z,59.10
2022-08-21T11:37:20.133Z,59.10
2022-08-21T11:40:05.627Z,58.60
2022-08-21T11:42:40.865Z,58.50
2022-08-21T11:45:13.883Z,58.10
2022-08-21T11:47:43.602Z,57.80
2022-08-21T11:50:34.030Z,57.40
2022-08-21T11:53:06.355Z,57.30
2022-08-21T11:55:38.459Z,57.40
2022-08-21T11:58:06.664Z,57.50
2022-08-21T12:00:36.587Z,57.60
2022-08-21T12:03:10.633Z,57.50
2022-08-21T12:05:39.346Z,57.70
2022-08-21T12:08:16.342Z,57.70
2022-08-21T12:10:46.694Z,57.60
2022-08-21T12:13:42.953Z,57.80
2022-08-21T12:16:10.607Z,57.70
2022-08-21T12:18:39.072Z,57.80
2022-08-21T12:21:05.932Z,57.80
2022-08-21T12:23:34.087Z,57.90
2022-08-21T12:26:01.497Z,57.90
2022-08-21T12:28:28.574Z,57.90
2022-08-21T12:30:58.114Z,58.00
2022-08-21T12:33:34.193Z,57.80
2022-08-21T12:36:15.385Z,57.80
2022-08-21T12:38:42.232Z,57.80
2022-08-21T12:41:16.153Z,57.70
2022-08-21T12:43:46.599Z,57.50
2022-08-21T12:46:20.308Z,57.00
2022-08-21T12:48:52.375Z,56.70
2022-08-21T12:51:20.054Z,56.40
2022-08-21T12:53:48.023Z,56.10
2022-08-21T12:56:18.407Z,55.60
2022-08-21T12:58:49.556Z,55.60
2022-08-21T13:01:16.347Z,55.50
2022-08-21T13:03:43.181Z,56.00
2022-08-21T13:06:13.834Z,56.10
2022-08-21T13:08:45.513Z,56.10
2022-08-21T13:11:15.620Z,56.20
2022-08-21T13:13:46.843Z,56.20
2022-08-21T13:16:19.768Z,56.30
2022-08-21T13:18:55.949Z,56.20
2022-08-21T13:21:22.760Z,56.20
2022-08-21T13:23:58.718Z,56.50
2022-08-21T13:26:41.305Z,56.30
2022-08-21T13:29:13.426Z,56.30
2022-08-21T13:31:55.080Z,56.30
2022-08-21T13:34:37.773Z,56.10
2022-08-21T13:37:11.498Z,56.30
2022-08-21T13:39:45.938Z,56.00
2022-08-21T13:42:27.154Z,56.10
2022-08-21T13:44:57.233Z,56.10
2022-08-21T13:47:27.843Z,55.80
2022-08-21T13:49:59.382Z,55.40
2022-08-21T13:52:27.361Z,54.90
2022-08-21T13:55:09.871Z,54.50
2022-08-21T13:57:45.600Z,54.00
2022-08-21T14:00:23.391Z,53.80
2022-08-21T14:02:51.592Z,54.10
2022-08-21T14:05:53.823Z,54.10
2022-08-21T14:08:30.809Z,54.20
2022-08-21T14:11:00.849Z,54.50
2022-08-21T14:13:35.865Z,54.60
2022-08-21T14:16:12.363Z,54.70
2022-08-21T14:19:08.370Z,54.90
2022-08-21T14:22:05.839Z,54.80
2022-08-21T14:24:45.272Z,56.00
2022-08-21T14:27:57.478Z,55.10
2022-08-21T14:30:38.357Z,55.30
2022-08-21T14:33:37.295Z,56.80
2022-08-21T14:36:06.594Z,56.20
2022-08-21T14:38:44.818Z,56.10
2022-08-21T14:41:58.709Z,56.10
2022-08-21T14:44:30.863Z,56.10
2022-08-21T14:46:59.619Z,56.00
2022-08-21T14:49:35.100Z,55.70
2022-08-21T14:52:07.647Z,55.30
2022-08-21T14:54:39.922Z,55.00
2022-08-21T14:57:28.032Z,54.40
2022-08-21T15:00:02.343Z,54.20
2022-08-21T15:02:37.281Z,54.00
2022-08-21T15:05:16.051Z,53.50
2022-08-21T15:07:58.123Z,54.20
2022-08-21T15:10:33.397Z,54.10
2022-08-21T15:13:13.521Z,54.10
2022-08-21T15:15:46.176Z,54.40
2022-08-21T15:18:20.682Z,54.40
2022-08-21T15:20:50.039Z,54.60
2022-08-21T15:23:19.857Z,54.60
2022-08-21T15:25:49.671Z,54.70
2022-08-21T15:28:31.650Z,54.80
2022-08-21T15:31:04.719Z,54.70
2022-08-21T15:33:32.066Z,54.90
2022-08-21T15:36:09.039Z,55.20
2022-08-21T15:38:37.873Z,55.30
2022-08-21T15:41:08.978Z,55.50
2022-08-21T15:43:42.876Z,55.60
2022-08-21T15:46:35.778Z,55.80
2022-08-21T15:49:12.661Z,55.80
2022-08-21T15:51:49.698Z,55.40
2022-08-21T15:54:39.231Z,55.20
2022-08-21T15:57:22.546Z,54.60
2022-08-21T15:59:54.926Z,54.20
2022-08-21T16:02:37.671Z,53.20
2022-08-21T16:05:13.250Z,53.10
2022-08-21T16:07:55.106Z,53.80
2022-08-21T16:10:33.297Z,54.10
2022-08-21T16:13:10.002Z,54.20
2022-08-21T16:15:40.938Z,54.10
2022-08-21T16:18:30.019Z,54.00
2022-08-21T16:21:18.886Z,54.00
2022-08-21T16:23:48.882Z,54.00
2022-08-21T16:29:43.620Z,54.30
2022-08-21T16:32:15.838Z,54.10
2022-08-21T16:34:54.939Z,54.40
2022-08-21T16:37:26.113Z,54.30
2022-08-21T16:40:04.264Z,54.40
2022-08-21T16:42:46.083Z,54.40
2022-08-21T16:45:20.827Z,54.50
2022-08-21T16:47:57.958Z,54.50
2022-08-21T16:50:39.580Z,54.30
2022-08-21T16:53:16.864Z,54.20
2022-08-21T16:55:47.064Z,54.10
2022-08-21T16:58:45.674Z,54.00
2022-08-21T17:01:15.235Z,53.90
2022-08-21T17:03:43.868Z,53.60
2022-08-21T17:06:13.556Z,53.70
2022-08-21T17:08:42.949Z,54.00
2022-08-21T17:11:13.389Z,53.60
2022-08-21T17:14:01.321Z,53.70
2022-08-21T17:16:36.382Z,53.80
2022-08-21T17:19:21.300Z,53.80
2022-08-21T17:21:51.528Z,54.00
2022-08-21T17:24:18.886Z,53.90
2022-08-21T17:26:49.279Z,53.90
2022-08-21T17:29:22.642Z,53.90
2022-08-21T17:31:58.027Z,53.90
2022-08-21T17:34:31.171Z,54.50
2022-08-21T17:37:01.693Z,54.10
2022-08-21T17:39:39.612Z,54.30
2022-08-21T17:42:19.644Z,54.10
2022-08-21T17:44:53.005Z,54.30
2022-08-21T17:47:22.772Z,53.90
2022-08-21T17:49:56.692Z,53.90
2022-08-21T17:52:29.443Z,53.70
2022-08-21T17:55:00.178Z,53.60
2022-08-21T17:57:37.048Z,52.90
2022-08-21T18:00:11.842Z,52.20
2022-08-21T18:02:45.593Z,48.70
2022-08-21T18:05:16.004Z,48.70
2022-08-21T18:07:43.211Z,48.40
2022-08-21T18:10:16.151Z,48.30
2022-08-21T18:12:50.049Z,48.20
2022-08-21T18:15:22.374Z,48.00
2022-08-21T18:17:57.784Z,48.90
2022-08-21T18:20:29.648Z,49.20
2022-08-21T18:23:00.275Z,50.40
2022-08-21T18:25:34.833Z,51.30
2022-08-21T18:28:05.980Z,51.90
2022-08-21T18:30:39.005Z,52.10
2022-08-21T18:33:09.201Z,52.20
2022-08-21T18:35:46.647Z,52.00
2022-08-21T18:38:18.334Z,51.40
2022-08-21T18:40:56.130Z,51.20
2022-08-21T18:43:31.857Z,51.10
2022-08-21T18:45:59.057Z,51.00
2022-08-21T18:48:39.633Z,51.30
2022-08-21T18:51:12.487Z,51.30
2022-08-21T18:53:41.941Z,50.70
2022-08-21T18:56:26.317Z,50.70
2022-08-21T18:59:04.646Z,51.00
2022-08-21T19:01:57.484Z,51.90
2022-08-21T19:04:42.937Z,52.00
2022-08-21T19:07:20.839Z,52.20
2022-08-21T19:10:24.661Z,51.90
2022-08-21T19:12:44.500Z,51.50
2022-08-21T19:15:15.315Z,51.40
2022-08-21T19:17:42.044Z,51.00
2022-08-21T19:20:25.535Z,50.80
2022-08-21T19:22:53.165Z,50.90
2022-08-21T19:25:20.515Z,51.30
2022-08-21T19:28:01.040Z,51.70
2022-08-21T19:30:28.840Z,51.60
2022-08-21T19:32:55.717Z,51.30
2022-08-21T19:35:23.226Z,51.40
2022-08-21T19:37:49.986Z,50.90
2022-08-21T19:40:19.466Z,50.70
2022-08-21T19:42:49.088Z,50.60
2022-08-21T19:45:15.864Z,50.80
2022-08-21T19:47:44.781Z,51.10
2022-08-21T19:50:17.326Z,51.10
2022-08-21T19:55:31.642Z,50.90
2022-08-21T19:58:00.746Z,50.70
2022-08-21T20:00:28.027Z,51.60
2022-08-21T20:02:54.779Z,51.30
2022-08-21T20:05:21.600Z,51.10
2022-08-21T20:07:48.432Z,51.40
2022-08-21T20:10:15.129Z,51.40
2022-08-21T20:12:41.867Z,51.00
2022-08-21T20:15:09.255Z,51.10
2022-08-21T20:17:36.003Z,50.10
2022-08-21T20:20:02.730Z,49.60
2022-08-21T20:22:29.448Z,49.50
2022-08-21T20:24:56.152Z,49.20
2022-08-21T20:27:24.476Z,49.30
2022-08-21T20:29:51.284Z,49.20
2022-08-21T20:32:18.018Z,49.20
2022-08-21T20:34:45.477Z,49.90
2022-08-21T20:37:14.370Z,49.60
2022-08-21T20:40:01.387Z,50.10
2022-08-21T20:42:28.168Z,51.10
2022-08-21T20:44:54.920Z,50.80
2022-08-21T20:47:22.258Z,50.50
2022-08-21T20:49:51.755Z,50.10
2022-08-21T20:52:20.412Z,49.80
2022-08-21T20:54:59.731Z,49.50
2022-08-21T20:57:32.601Z,49.10
2022-08-21T21:00:01.571Z,48.80
2022-08-21T21:02:44.053Z,48.70
2022-08-21T21:08:25.277Z,49.10
2022-08-21T21:10:54.257Z,49.20
2022-08-21T21:13:24.088Z,49.50
2022-08-21T21:15:52.001Z,49.40
2022-08-21T21:18:36.405Z,50.20
2022-08-21T21:21:13.459Z,49.70
2022-08-21T21:23:41.814Z,49.60
2022-08-21T21:26:29.297Z,49.90
2022-08-21T21:28:59.421Z,49.90
2022-08-21T21:31:29.168Z,50.00
2022-08-21T21:33:55.947Z,49.90
2022-08-21T21:36:25.639Z,50.20
2022-08-21T21:38:59.139Z,50.10
2022-08-21T21:41:33.061Z,50.10
2022-08-21T21:43:59.974Z,50.20
2022-08-21T21:46:26.870Z,50.10
2022-08-21T21:48:59.590Z,50.10
2022-08-21T21:51:55.792Z,50.30
2022-08-21T21:54:38.735Z,50.20
2022-08-21T21:57:10.611Z,50.20
2022-08-21T21:59:43.605Z,50.00
2022-08-21T22:02:17.118Z,49.90
2022-08-21T22:04:56.071Z,50.30
2022-08-21T22:07:38.157Z,50.30
2022-08-21T22:10:19.688Z,50.30
2022-08-21T22:13:10.499Z,50.20
2022-08-21T22:15:37.965Z,50.30
2022-08-21T22:18:10.093Z,50.20
2022-08-21T22:20:46.216Z,50.00
2022-08-21T22:23:15.874Z,49.60
2022-08-21T22:25:43.341Z,49.30
2022-08-21T22:28:25.454Z,48.90
2022-08-21T22:31:12.873Z,48.70
2022-08-21T22:33:41.037Z,48.30
2022-08-21T22:36:19.528Z,48.50
2022-08-21T22:38:47.127Z,48.50
2022-08-21T22:44:02.638Z,48.70
2022-08-21T22:46:37.509Z,49.00
2022-08-21T22:49:08.198Z,49.00
2022-08-21T22:51:39.314Z,49.10
2022-08-21T22:57:04.683Z,49.00
2022-08-21T22:59:34.895Z,48.90
2022-08-21T23:02:03.797Z,49.10
2022-08-21T23:04:31.548Z,49.20
2022-08-21T23:07:01.397Z,49.10
2022-08-21T23:09:28.129Z,49.20
2022-08-21T23:11:55.691Z,49.20
2022-08-21T23:14:23.754Z,49.40
2022-08-21T23:16:58.544Z,49.40
2022-08-21T23:19:38.000Z,49.50
2022-08-21T23:22:18.125Z,49.60
2022-08-21T23:25:09.017Z,49.60
2022-08-21T23:27:35.966Z,49.50
2022-08-21T23:30:07.273Z,49.60
2022-08-21T23:32:47.178Z,49.50
2022-08-21T23:35:56.445Z,49.50
2022-08-21T23:38:27.949Z,49.60
2022-08-21T23:40:56.316Z,49.60
2022-08-21T23:43:23.022Z,49.50
2022-08-21T23:46:09.837Z,49.70
2022-08-21T23:48:43.895Z,49.80
2022-08-21T23:51:12.701Z,49.30
2022-08-21T23:56:38.347Z,48.50
2022-08-21T23:59:08.050Z,48.40
